| time (UTC) | temp F | wind direction | speed MPH | gust MPH | rain 1hr in | rain 24hr in | rain mn in | humidity % | barometer mb |
| 20260507003029 | 44 | 290 | 1.0 | 3.0 | 0.00 | 0.00 | 0.00 | 86 | 1013.3 |
| 20260507001537 | 44 | 259 | 0.0 | 3.0 | 0.00 | 0.00 | 0.00 | 85 | 1013.3 |
| 20260507000031 | 44 | 327 | 0.0 | 3.0 | 0.00 | 0.00 | 0.00 | 85 | 1013.4 |
| 20260506234523 | 44 | 19 | 0.0 | 3.0 | 0.00 | 0.00 | 0.00 | 85 | 1013.4 |
| 20260506233022 | 44 | 301 | 0.0 | 4.0 | 0.00 | 0.00 | 0.00 | 84 | 1013.3 |
| 20260506231520 | 45 | 294 | 0.0 | 2.0 | 0.00 | 0.00 | 0.00 | 84 | 1013.3 |
| 20260506230019 | 45 | 302 | 0.0 | 2.0 | 0.00 | 0.00 | 0.00 | 84 | 1013.4 |
| 20260506224517 | 45 | 302 | 0.0 | 3.0 | 0.00 | 0.00 | 0.00 | 84 | 1013.3 |
| 20260506223014 | 45 | 266 | 1.0 | 4.0 | 0.00 | 0.00 | 0.00 | 83 | 1013.2 |
| 20260506221512 | 46 | 326 | 1.0 | 4.0 | 0.00 | 0.00 | 0.00 | 82 | 1013.1 |
| 20260506220008 | 46 | 328 | 1.0 | 3.0 | 0.00 | 0.00 | 0.00 | 81 | 1013.1 |
| 20260506214506 | 47 | 319 | 1.0 | 3.0 | 0.00 | 0.00 | 0.00 | 80 | 1013.1 |
| 20260506213004 | 47 | 323 | 1.0 | 4.0 | 0.00 | 0.00 | 0.00 | 79 | 1012.9 |
| 20260506211501 | 48 | 334 | 1.0 | 5.0 | 0.00 | 0.00 | 0.00 | 78 | 1012.8 |
| 20260506210058 | 49 | 346 | 0.0 | 4.0 | 0.00 | 0.00 | 0.00 | 76 | 1012.7 |
| 20260506204558 | 49 | 344 | 0.0 | 4.0 | 0.00 | 0.00 | 0.00 | 75 | 1012.6 |
| 20260506203058 | 50 | 340 | 0.0 | 3.0 | 0.00 | 0.00 | 0.00 | 74 | 1012.6 |
| 20260506201556 | 50 | 325 | 1.0 | 5.0 | 0.00 | 0.00 | 0.00 | 73 | 1012.5 |
| 20260506200054 | 51 | 309 | 0.0 | 4.0 | 0.00 | 0.00 | 0.00 | 72 | 1012.4 |
| 20260506194553 | 51 | 336 | 1.0 | 4.0 | 0.00 | 0.00 | 0.00 | 71 | 1012.2 |
| 20260506193056 | 52 | 22 | 1.0 | 4.0 | 0.00 | 0.00 | 0.00 | 71 | 1012.0 |
| 20260506191551 | 52 | 309 | 1.0 | 5.0 | 0.00 | 0.00 | 0.00 | 72 | 1011.8 |
| 20260506190046 | 52 | 315 | 1.0 | 4.0 | 0.00 | 0.00 | 0.00 | 73 | 1011.4 |
| 20260506184544 | 53 | 119 | 0.0 | 2.0 | 0.00 | 0.00 | 0.00 | 73 | 1011.4 |
| 20260506183043 | 53 | 119 | 0.0 | 1.0 | 0.00 | 0.00 | 0.00 | 72 | 1011.2 |
| 20260506181555 | 53 | 119 | 0.0 | 2.0 | 0.00 | 0.00 | 0.00 | 71 | 1011.0 |
| 20260506180038 | 53 | 119 | 0.0 | 3.0 | 0.00 | 0.00 | 0.00 | 71 | 1010.9 |
| 20260506174538 | 53 | 119 | 0.0 | 3.0 | 0.00 | 0.00 | 0.00 | 71 | 1010.7 |
| 20260506173102 | 54 | 119 | 1.0 | 3.0 | 0.00 | 0.00 | 0.00 | 69 | 1010.5 |
| 20260506171541 | 54 | 121 | 0.0 | 3.0 | 0.00 | 0.00 | 0.00 | 68 | 1010.5 |
| 20260506170050 | 55 | 95 | 0.0 | 2.0 | 0.00 | 0.00 | 0.00 | 67 | 1010.3 |
| 20260506164532 | 55 | 95 | 0.0 | 1.0 | 0.00 | 0.00 | 0.00 | 65 | 1010.4 |
| 20260506163034 | 55 | 95 | 1.0 | 3.0 | 0.00 | 0.00 | 0.00 | 65 | 1010.3 |
| 20260506161529 | 55 | 86 | 0.0 | 3.0 | 0.00 | 0.00 | 0.00 | 66 | 1010.3 |
| 20260506160025 | 54 | 88 | 0.0 | 3.0 | 0.00 | 0.00 | 0.00 | 67 | 1010.3 |
| 20260506154505 | 54 | 91 | 1.0 | 6.0 | 0.00 | 0.00 | 0.00 | 65 | 1010.4 |
| 20260506153004 | 54 | 82 | 1.0 | 3.0 | 0.00 | 0.00 | 0.00 | 66 | 1010.4 |
| 20260506151507 | 55 | 78 | 2.0 | 6.0 | 0.00 | 0.00 | 0.00 | 64 | 1010.2 |
| 20260506150005 | 55 | 143 | 1.0 | 4.0 | 0.00 | 0.00 | 0.00 | 65 | 1010.2 |
| 20260506144501 | 55 | 86 | 3.0 | 7.0 | 0.00 | 0.00 | 0.00 | 63 | 1010.1 |
| 20260506143100 | 55 | 88 | 2.0 | 8.0 | 0.00 | 0.00 | 0.00 | 62 | 1010.1 |
| 20260506141602 | 55 | 87 | 1.0 | 9.0 | 0.00 | 0.00 | 0.00 | 63 | 1010.1 |
| 20260506140058 | 54 | 74 | 3.0 | 8.0 | 0.00 | 0.00 | 0.00 | 61 | 1010.1 |
| 20260506134557 | 54 | 93 | 2.0 | 12.0 | 0.00 | 0.00 | 0.00 | 62 | 1010.1 |
| 20260506133114 | 54 | 80 | 4.0 | 14.0 | 0.00 | 0.00 | 0.00 | 61 | 1010.1 |
| 20260506131553 | 53 | 93 | 3.0 | 12.0 | 0.00 | 0.00 | 0.00 | 62 | 1010.1 |
| 20260506130110 | 53 | 77 | 6.0 | 15.0 | 0.00 | 0.00 | 0.00 | 63 | 1010.1 |
| 20260506124552 | 53 | 96 | 3.0 | 9.0 | 0.00 | 0.00 | 0.00 | 65 | 1010.1 |
| 20260506123051 | 53 | 215 | 1.0 | 8.0 | 0.00 | 0.00 | 0.00 | 64 | 1010.0 |
| 20260506121550 | 53 | 107 | 2.0 | 10.0 | 0.00 | 0.00 | 0.00 | 64 | 1009.9 |
| 20260506120049 | 53 | 101 | 3.0 | 8.0 | 0.00 | 0.00 | 0.00 | 67 | 1009.8 |
| 20260506114550 | 53 | 92 | 3.0 | 13.0 | 0.00 | 0.00 | 0.00 | 67 | 1009.8 |
| 20260506113048 | 53 | 90 | 4.0 | 11.0 | 0.00 | 0.00 | 0.00 | 63 | 1009.8 |
| 20260506111547 | 53 | 96 | 4.0 | 11.0 | 0.00 | 0.00 | 0.00 | 61 | 1009.7 |
| 20260506110047 | 53 | 98 | 3.0 | 12.0 | 0.00 | 0.00 | 0.00 | 64 | 1009.7 |
| 20260506104607 | 53 | 66 | 2.0 | 8.0 | 0.00 | 0.00 | 0.00 | 68 | 1009.5 |
| 20260506103042 | 52 | 86 | 2.0 | 15.0 | 0.00 | 0.00 | 0.00 | 65 | 1009.6 |
| 20260506101541 | 52 | 71 | 4.0 | 18.0 | 0.00 | 0.00 | 0.00 | 62 | 1009.6 |
| 20260506100043 | 52 | 88 | 6.0 | 19.0 | 0.00 | 0.00 | 0.00 | 57 | 1009.5 |
| 20260506094538 | 52 | 94 | 4.0 | 13.0 | 0.00 | 0.00 | 0.00 | 59 | 1009.4 |
| 20260506093035 | 52 | 67 | 5.0 | 18.0 | 0.00 | 0.00 | 0.00 | 61 | 1009.3 |
| 20260506091534 | 52 | 39 | 2.0 | 8.0 | 0.00 | 0.00 | 0.00 | 65 | 1009.3 |
| 20260506090040 | 52 | 123 | 1.0 | 8.0 | 0.00 | 0.00 | 0.00 | 68 | 1009.2 |
| 20260506084528 | 52 | 111 | 4.0 | 12.0 | 0.00 | 0.00 | 0.00 | 70 | 1009.1 |
| 20260506083035 | 51 | 59 | 3.0 | 11.0 | 0.00 | 0.00 | 0.00 | 73 | 1009.1 |
| 20260506081520 | 51 | 54 | 3.0 | 10.0 | 0.00 | 0.00 | 0.00 | 74 | 1009.0 |
| 20260506073015 | 50 | 113 | 0.0 | 6.0 | 0.00 | 0.00 | 0.00 | 78 | 1008.8 |
| 20260506071513 | 50 | 58 | 2.0 | 5.0 | 0.00 | 0.00 | 0.00 | 78 | 1008.8 |
| 20260506061504 | 49 | 46 | 2.0 | 6.0 | 0.00 | 0.00 | 0.00 | 80 | 1008.5 |
| 20260506044608 | 48 | 83 | 0.0 | 4.0 | 0.00 | 0.00 | 0.00 | 84 | 1008.2 |
| 20260506043056 | 48 | 327 | 1.0 | 3.0 | 0.00 | 0.00 | 0.00 | 84 | 1008.2 |
| 20260506041553 | 48 | 331 | 0.0 | 4.0 | 0.00 | 0.00 | 0.00 | 84 | 1008.3 |
| 20260506040051 | 48 | 5 | 0.0 | 5.0 | 0.00 | 0.00 | 0.00 | 84 | 1008.3 |
| 20260506034549 | 48 | 360 | 1.0 | 4.0 | 0.00 | 0.00 | 0.00 | 84 | 1008.4 |
| 20260506033046 | 49 | 326 | 1.0 | 5.0 | 0.00 | 0.00 | 0.00 | 84 | 1008.4 |
| 20260506031547 | 49 | 201 | 0.0 | 3.0 | 0.00 | 0.00 | 0.00 | 84 | 1008.5 |
| 20260506030041 | 49 | 296 | 0.0 | 4.0 | 0.00 | 0.00 | 0.00 | 84 | 1008.7 |
| 20260506024545 | 49 | 346 | 0.0 | 3.0 | 0.00 | 0.00 | 0.00 | 83 | 1008.8 |
| 20260506023040 | 49 | 355 | 1.0 | 4.0 | 0.00 | 0.00 | 0.00 | 83 | 1008.9 |
| 20260506021552 | 49 | 23 | 1.0 | 3.0 | 0.00 | 0.00 | 0.00 | 82 | 1008.9 |
| 20260506020037 | 49 | 75 | 0.0 | 5.0 | 0.00 | 0.00 | 0.00 | 82 | 1009.0 |
| 20260506014536 | 49 | 29 | 0.0 | 4.0 | 0.00 | 0.00 | 0.00 | 82 | 1009.2 |
| 20260506013034 | 49 | 327 | 0.0 | 3.0 | 0.00 | 0.00 | 0.00 | 81 | 1009.2 |
| 20260506011534 | 49 | 328 | 0.0 | 4.0 | 0.00 | 0.00 | 0.00 | 81 | 1009.2 |
| 20260506010044 | 49 | 329 | 1.0 | 8.0 | 0.00 | 0.00 | 0.00 | 82 | 1009.3 |
| 20260506004530 | 49 | 119 | 1.0 | 3.0 | 0.00 | 0.00 | 0.00 | 82 | 1009.5 |